createdAt,value
2019-05-17T00:01:17.436Z,92.70
2019-05-17T00:03:37.151Z,92.60
2019-05-17T00:05:57.179Z,92.60
2019-05-17T00:08:29.810Z,92.60
2019-05-17T00:10:38.884Z,92.50
2019-05-17T00:12:58.699Z,92.60
2019-05-17T00:15:18.506Z,92.60
2019-05-17T00:17:38.576Z,92.70
2019-05-17T00:19:58.025Z,92.40
2019-05-17T00:22:18.477Z,93.00
2019-05-17T00:24:38.080Z,93.00
2019-05-17T00:26:58.618Z,92.70
2019-05-17T00:29:18.976Z,92.60
2019-05-17T00:31:38.714Z,92.70
2019-05-17T00:33:58.742Z,93.00
2019-05-17T00:36:19.729Z,92.60
2019-05-17T00:38:48.201Z,92.70
2019-05-17T00:41:03.578Z,92.70
2019-05-17T00:43:23.517Z,92.50
2019-05-17T00:45:43.430Z,92.50
2019-05-17T00:48:03.489Z,92.60
2019-05-17T00:50:23.643Z,92.40
2019-05-17T00:52:43.680Z,92.70
2019-05-17T00:55:06.773Z,92.70
2019-05-17T00:57:27.452Z,92.50
2019-05-17T00:59:47.731Z,92.50
2019-05-17T01:02:07.802Z,92.60
2019-05-17T01:04:27.726Z,92.70
2019-05-17T01:06:47.867Z,93.00
2019-05-17T01:09:08.159Z,92.70
2019-05-17T01:11:28.203Z,92.60
2019-05-17T01:13:48.208Z,92.60
2019-05-17T01:16:08.262Z,92.60
2019-05-17T01:18:28.185Z,92.70
2019-05-17T01:20:48.197Z,92.60
2019-05-17T01:23:08.188Z,92.60
2019-05-17T01:25:27.877Z,92.60
2019-05-17T01:27:47.653Z,92.70
2019-05-17T01:30:08.994Z,92.70
2019-05-17T01:32:29.271Z,92.90
2019-05-17T01:34:49.271Z,92.70
2019-05-17T01:37:09.007Z,92.50
2019-05-17T01:39:29.263Z,92.70
2019-05-17T01:41:49.386Z,92.60
2019-05-17T01:44:09.103Z,92.60
2019-05-17T01:46:28.960Z,92.50
2019-05-17T01:48:49.033Z,92.80
2019-05-17T01:51:10.046Z,92.70
2019-05-17T01:53:29.822Z,92.70
2019-05-17T01:55:49.591Z,92.70
2019-05-17T01:58:09.586Z,92.70
2019-05-17T02:00:30.045Z,92.70
2019-05-17T02:02:52.042Z,92.60
2019-05-17T02:05:13.278Z,92.80
2019-05-17T02:07:33.799Z,92.70
2019-05-17T02:09:53.518Z,93.00
2019-05-17T02:12:13.407Z,93.10
2019-05-17T02:14:33.085Z,93.00
2019-05-17T02:16:52.816Z,92.90
2019-05-17T02:19:12.598Z,92.90
2019-05-17T02:21:32.563Z,92.80
2019-05-17T02:23:52.494Z,92.80
2019-05-17T02:26:13.475Z,92.90
2019-05-17T02:28:33.793Z,93.00
2019-05-17T02:30:54.093Z,93.00
2019-05-17T02:33:14.954Z,93.40
2019-05-17T02:35:35.141Z,93.10
2019-05-17T02:37:55.018Z,93.20
2019-05-17T02:40:15.863Z,93.20
2019-05-17T02:42:36.007Z,93.40
2019-05-17T02:44:56.146Z,93.00
2019-05-17T02:47:16.347Z,93.20
2019-05-17T02:49:36.155Z,93.10
2019-05-17T02:51:55.995Z,93.50
2019-05-17T02:54:15.975Z,93.40
2019-05-17T02:56:35.966Z,93.00
2019-05-17T02:58:55.586Z,92.90
2019-05-17T03:01:15.444Z,92.70
2019-05-17T03:03:36.524Z,92.60
2019-05-17T03:05:56.254Z,92.70
2019-05-17T03:08:16.458Z,92.60
2019-05-17T03:10:35.797Z,92.60
2019-05-17T03:12:55.589Z,92.60
2019-05-17T03:15:15.495Z,92.60
2019-05-17T03:17:35.523Z,92.60
2019-05-17T03:19:55.215Z,93.10
2019-05-17T03:22:15.083Z,92.60
2019-05-17T03:24:35.018Z,92.90
2019-05-17T03:26:54.719Z,93.10
2019-05-17T03:29:14.604Z,93.20
2019-05-17T03:31:42.374Z,93.00
2019-05-17T03:33:57.984Z,93.40
2019-05-17T03:36:18.585Z,93.40
2019-05-17T03:38:38.442Z,93.00
2019-05-17T03:41:13.912Z,93.10
2019-05-17T03:43:22.620Z,93.30
2019-05-17T03:45:42.699Z,92.80
2019-05-17T03:48:04.837Z,92.80
2019-05-17T03:50:24.595Z,92.80
2019-05-17T03:52:45.022Z,93.20
2019-05-17T03:55:05.191Z,92.60
2019-05-17T03:57:25.138Z,93.30
2019-05-17T03:59:44.868Z,93.10
2019-05-17T04:02:04.700Z,93.40
2019-05-17T04:04:25.471Z,92.90
2019-05-17T04:06:45.283Z,93.30
2019-05-17T04:09:05.990Z,93.30
2019-05-17T04:11:31.412Z,93.20
2019-05-17T04:13:47.279Z,92.50
2019-05-17T04:16:09.174Z,92.70
2019-05-17T04:18:29.039Z,93.30
2019-05-17T04:20:52.517Z,92.90
2019-05-17T04:23:12.763Z,92.60
2019-05-17T04:25:33.381Z,92.80
2019-05-17T04:27:53.992Z,92.70
2019-05-17T04:30:13.842Z,92.70
2019-05-17T04:32:33.743Z,92.70
2019-05-17T04:34:53.396Z,93.00
2019-05-17T04:37:13.331Z,92.50
2019-05-17T04:39:34.297Z,92.90
2019-05-17T04:41:54.883Z,92.80
2019-05-17T04:44:14.999Z,93.00
2019-05-17T04:46:35.065Z,93.00
2019-05-17T04:48:54.811Z,93.30
2019-05-17T04:51:14.622Z,93.00
2019-05-17T04:53:34.461Z,93.20
2019-05-17T04:55:54.398Z,93.00
2019-05-17T04:58:14.586Z,93.30
2019-05-17T05:00:35.483Z,93.00
2019-05-17T05:02:55.471Z,93.20
2019-05-17T05:05:16.104Z,93.10
2019-05-17T05:07:35.807Z,92.90
2019-05-17T05:09:55.466Z,92.70
2019-05-17T05:12:15.103Z,92.70
2019-05-17T05:14:34.790Z,92.70
2019-05-17T05:16:54.489Z,92.40
2019-05-17T05:19:14.416Z,92.50
2019-05-17T05:21:33.894Z,92.50
2019-05-17T05:23:53.551Z,92.50
2019-05-17T05:26:13.304Z,92.50
2019-05-17T05:28:33.209Z,92.50
2019-05-17T05:30:52.890Z,92.30
2019-05-17T05:33:13.146Z,92.20
2019-05-17T05:35:33.223Z,92.70
2019-05-17T05:37:52.862Z,92.20
2019-05-17T05:40:13.091Z,92.10
2019-05-17T05:42:33.570Z,92.40
2019-05-17T05:44:55.454Z,92.50
2019-05-17T05:47:15.599Z,92.20
2019-05-17T05:49:35.587Z,92.00
2019-05-17T05:51:55.714Z,92.30
2019-05-17T05:54:19.250Z,92.20
2019-05-17T05:56:42.048Z,92.00
2019-05-17T05:59:02.912Z,92.10
2019-05-17T06:01:22.986Z,92.00
2019-05-17T06:03:42.849Z,92.00
2019-05-17T06:06:02.739Z,92.20
2019-05-17T06:08:22.936Z,92.60
2019-05-17T06:10:43.135Z,92.50
2019-05-17T06:13:03.330Z,92.10
2019-05-17T06:15:26.451Z,92.70
2019-05-17T06:17:46.374Z,92.40
2019-05-17T06:20:06.555Z,91.90
2019-05-17T06:22:26.609Z,91.90
2019-05-17T06:24:46.497Z,91.50
2019-05-17T06:27:06.710Z,91.20
2019-05-17T06:29:26.456Z,91.30
2019-05-17T06:31:46.320Z,91.50
2019-05-17T06:34:06.277Z,91.10
2019-05-17T06:36:26.399Z,91.10
2019-05-17T06:38:46.379Z,90.80
2019-05-17T06:41:06.550Z,90.70
2019-05-17T06:43:26.672Z,90.80
2019-05-17T06:45:46.546Z,90.20
2019-05-17T06:48:06.306Z,90.40
2019-05-17T06:50:25.923Z,90.00
2019-05-17T06:52:45.725Z,90.10
2019-05-17T06:55:06.023Z,90.10
2019-05-17T06:57:26.087Z,90.00
2019-05-17T06:59:45.633Z,90.20
2019-05-17T07:02:05.473Z,89.80
2019-05-17T07:04:25.391Z,89.70
2019-05-17T07:06:49.430Z,89.70
2019-05-17T07:09:10.105Z,90.20
2019-05-17T07:11:30.474Z,89.20
2019-05-17T07:13:50.339Z,89.20
2019-05-17T07:16:11.100Z,88.80
2019-05-17T07:18:30.934Z,88.50
2019-05-17T07:20:50.639Z,87.90
2019-05-17T07:23:10.965Z,87.90
2019-05-17T07:25:30.970Z,88.60
2019-05-17T07:27:50.547Z,88.80
2019-05-17T07:30:10.777Z,88.10
2019-05-17T07:32:30.794Z,88.70
2019-05-17T07:34:50.879Z,89.60
2019-05-17T07:37:10.902Z,88.80
2019-05-17T07:39:30.659Z,87.80
2019-05-17T07:41:50.774Z,88.40
2019-05-17T07:44:10.505Z,88.60
2019-05-17T07:46:30.405Z,88.40
2019-05-17T07:48:50.397Z,87.10
2019-05-17T07:51:10.370Z,86.90
2019-05-17T07:53:30.820Z,86.70
2019-05-17T07:55:51.465Z,85.90
2019-05-17T07:58:11.303Z,85.90
2019-05-17T08:00:32.222Z,86.10
2019-05-17T08:02:52.111Z,85.30
2019-05-17T08:05:12.118Z,84.20
2019-05-17T08:07:31.504Z,84.70
2019-05-17T08:09:51.470Z,84.60
2019-05-17T08:12:12.410Z,83.90
2019-05-17T08:14:33.710Z,83.70
2019-05-17T08:16:53.498Z,83.40
2019-05-17T08:19:13.145Z,83.00
2019-05-17T08:21:33.716Z,82.40
2019-05-17T08:23:54.669Z,82.40
2019-05-17T08:26:14.413Z,82.20
2019-05-17T08:28:34.378Z,81.80
2019-05-17T08:30:57.450Z,80.20
2019-05-17T08:33:19.470Z,81.90
2019-05-17T08:35:40.059Z,81.10
2019-05-17T08:38:00.600Z,80.60
2019-05-17T08:40:20.402Z,79.40
2019-05-17T08:42:40.637Z,79.70
2019-05-17T08:45:00.837Z,79.40
2019-05-17T08:47:21.015Z,79.20
2019-05-17T08:49:40.869Z,78.90
2019-05-17T08:52:00.706Z,78.80
2019-05-17T08:54:20.561Z,78.60
2019-05-17T08:56:40.626Z,78.60
2019-05-17T08:59:00.965Z,78.50
2019-05-17T09:01:20.829Z,79.10
2019-05-17T09:03:41.291Z,78.20
2019-05-17T09:06:02.621Z,77.70
2019-05-17T09:08:22.623Z,78.00
2019-05-17T09:10:42.310Z,77.80
2019-05-17T09:13:02.142Z,77.80
2019-05-17T09:15:21.864Z,76.20
2019-05-17T09:17:41.637Z,78.10
2019-05-17T09:20:01.944Z,78.40
2019-05-17T09:22:22.158Z,77.60
2019-05-17T09:24:42.148Z,77.90
2019-05-17T09:27:02.434Z,78.30
2019-05-17T09:29:22.183Z,78.00
2019-05-17T09:31:42.279Z,78.30
2019-05-17T09:34:01.974Z,78.80
2019-05-17T09:36:22.003Z,78.00
2019-05-17T09:38:43.008Z,77.00
2019-05-17T09:41:02.810Z,79.40
2019-05-17T09:43:22.762Z,79.40
2019-05-17T09:45:42.580Z,79.20
2019-05-17T09:48:02.354Z,78.70
2019-05-17T09:50:22.154Z,79.10
2019-05-17T09:52:41.832Z,78.30
2019-05-17T09:55:03.407Z,79.20
2019-05-17T09:57:23.343Z,77.70
2019-05-17T09:59:43.657Z,78.20
2019-05-17T10:02:03.202Z,78.50
2019-05-17T10:04:24.150Z,77.90
2019-05-17T10:06:44.179Z,79.40
2019-05-17T10:09:04.685Z,78.60
2019-05-17T10:11:26.333Z,79.20
2019-05-17T10:13:45.958Z,79.30
2019-05-17T10:16:05.982Z,79.40
2019-05-17T10:18:25.457Z,80.10
2019-05-17T10:20:45.578Z,79.60
2019-05-17T10:23:05.938Z,79.70
2019-05-17T10:25:25.433Z,79.50
2019-05-17T10:27:45.378Z,79.50
2019-05-17T10:30:05.792Z,79.00
2019-05-17T10:32:25.687Z,79.30
2019-05-17T10:34:45.578Z,78.50
2019-05-17T10:37:05.322Z,76.60
2019-05-17T10:39:25.453Z,77.80
2019-05-17T10:41:45.179Z,76.20
2019-05-17T10:44:05.181Z,76.10
2019-05-17T10:46:25.354Z,76.80
2019-05-17T10:48:45.345Z,76.00
2019-05-17T10:51:49.740Z,74.70
2019-05-17T10:54:09.830Z,76.80
2019-05-17T10:56:29.711Z,76.30
2019-05-17T10:58:49.595Z,77.60
2019-05-17T11:01:10.201Z,77.40
2019-05-17T11:03:30.160Z,75.10
2019-05-17T11:05:50.374Z,76.60
2019-05-17T11:08:10.875Z,75.70
2019-05-17T11:10:30.990Z,73.70
2019-05-17T11:12:50.955Z,76.50
2019-05-17T11:15:12.122Z,76.40
2019-05-17T11:17:32.245Z,75.70
2019-05-17T11:19:51.854Z,76.10
2019-05-17T11:22:11.754Z,75.60
2019-05-17T11:24:31.799Z,75.90
2019-05-17T11:26:51.306Z,75.90
2019-05-17T11:29:11.442Z,76.10
2019-05-17T11:31:31.372Z,75.50
2019-05-17T11:33:51.062Z,74.60
2019-05-17T11:36:11.218Z,73.70
2019-05-17T11:38:31.039Z,72.80
2019-05-17T11:40:51.113Z,71.60
2019-05-17T11:43:11.380Z,71.20
2019-05-17T11:45:32.779Z,71.60
2019-05-17T11:47:54.110Z,72.20
2019-05-17T11:50:14.334Z,71.60
2019-05-17T11:52:34.173Z,71.80
2019-05-17T11:54:54.055Z,69.60
2019-05-17T11:57:13.933Z,71.50
2019-05-17T11:59:33.710Z,73.00
2019-05-17T12:01:53.419Z,74.30
2019-05-17T12:04:13.285Z,73.30
2019-05-17T12:06:33.124Z,74.00
2019-05-17T12:08:52.819Z,72.30
2019-05-17T12:11:12.574Z,72.50
2019-05-17T12:13:32.646Z,74.70
2019-05-17T12:15:53.598Z,73.90
2019-05-17T12:18:13.947Z,75.50
2019-05-17T12:20:34.330Z,73.70
2019-05-17T12:22:53.910Z,74.70
2019-05-17T12:25:13.932Z,74.80
2019-05-17T12:27:33.830Z,75.70
2019-05-17T12:29:54.050Z,73.50
2019-05-17T12:32:16.822Z,72.80
2019-05-17T12:34:35.796Z,73.50
2019-05-17T12:36:56.621Z,73.50
2019-05-17T12:39:16.929Z,74.70
2019-05-17T12:41:37.149Z,73.80
2019-05-17T12:44:12.473Z,72.30
2019-05-17T12:46:32.835Z,74.10
2019-05-17T12:48:53.069Z,74.30
2019-05-17T12:51:12.451Z,73.40
2019-05-17T12:53:32.334Z,74.00
2019-05-17T12:55:52.296Z,73.10
2019-05-17T12:58:12.968Z,73.00
2019-05-17T13:00:32.802Z,72.60
2019-05-17T13:02:52.790Z,72.20
2019-05-17T13:05:12.962Z,71.40
2019-05-17T13:07:32.768Z,71.10
2019-05-17T13:09:52.598Z,69.30
2019-05-17T13:12:12.653Z,70.60
2019-05-17T13:14:32.386Z,71.00
2019-05-17T13:16:52.133Z,71.90
2019-05-17T13:19:11.944Z,72.40
2019-05-17T13:21:31.820Z,71.90
2019-05-17T13:23:51.502Z,71.20
2019-05-17T13:26:11.566Z,70.60
2019-05-17T13:28:31.575Z,69.20
2019-05-17T13:30:51.434Z,67.80
2019-05-17T13:33:11.597Z,65.90
2019-05-17T13:35:31.299Z,66.40
2019-05-17T13:37:50.869Z,66.80
2019-05-17T13:40:11.113Z,68.70
2019-05-17T13:42:31.050Z,68.20
2019-05-17T13:44:50.928Z,68.70
2019-05-17T13:47:10.910Z,65.50
2019-05-17T13:49:30.905Z,68.50
2019-05-17T13:51:50.878Z,66.50
2019-05-17T13:54:11.870Z,65.40
2019-05-17T13:56:31.723Z,64.40
2019-05-17T13:58:51.562Z,67.00
2019-05-17T14:01:11.495Z,67.70
2019-05-17T14:03:31.200Z,66.00
2019-05-17T14:05:51.201Z,67.50
2019-05-17T14:08:10.597Z,66.20
2019-05-17T14:10:32.264Z,68.20
2019-05-17T14:12:53.678Z,66.10
2019-05-17T14:15:13.629Z,68.10
2019-05-17T14:17:33.130Z,69.70
2019-05-17T14:19:53.163Z,66.40
2019-05-17T14:22:13.030Z,67.80
2019-05-17T14:24:32.540Z,68.60
2019-05-17T14:26:52.687Z,69.10
2019-05-17T14:29:12.863Z,68.40
2019-05-17T14:31:32.584Z,69.30
2019-05-17T14:33:52.154Z,68.80
2019-05-17T14:36:11.823Z,68.00
2019-05-17T14:38:31.724Z,69.00
2019-05-17T14:41:08.441Z,70.20
2019-05-17T14:43:13.658Z,68.10
2019-05-17T14:45:33.436Z,69.80
2019-05-17T14:47:54.385Z,70.40
2019-05-17T14:50:14.451Z,70.80
2019-05-17T14:52:34.322Z,70.80
2019-05-17T14:54:54.065Z,71.10
2019-05-17T14:57:14.468Z,71.70
2019-05-17T14:59:35.954Z,70.60
2019-05-17T15:01:55.670Z,70.50
2019-05-17T15:04:15.527Z,69.40
2019-05-17T15:06:36.764Z,70.40
2019-05-17T15:08:56.528Z,69.60
2019-05-17T15:11:16.441Z,70.40
2019-05-17T15:13:36.463Z,69.20
2019-05-17T15:15:56.377Z,68.90
2019-05-17T15:18:16.343Z,68.50
2019-05-17T15:20:36.274Z,68.70
2019-05-17T15:22:56.430Z,67.50
2019-05-17T15:25:15.813Z,66.20
2019-05-17T15:27:35.894Z,67.00
2019-05-17T15:29:55.962Z,66.60
2019-05-17T15:32:15.827Z,66.20
2019-05-17T15:34:35.471Z,65.90
2019-05-17T15:36:55.289Z,65.60
2019-05-17T15:39:14.995Z,65.50
2019-05-17T15:41:35.122Z,66.10
2019-05-17T15:43:55.062Z,66.50
2019-05-17T15:46:14.554Z,67.00
2019-05-17T15:48:34.353Z,67.10
2019-05-17T15:50:54.129Z,67.90
2019-05-17T15:53:14.069Z,68.80
2019-05-17T15:55:33.848Z,67.70
2019-05-17T15:57:53.882Z,68.30
2019-05-17T16:00:13.824Z,67.90
2019-05-17T16:02:33.737Z,68.10
2019-05-17T16:04:54.022Z,68.60
2019-05-17T16:07:14.312Z,68.50
2019-05-17T16:09:34.436Z,68.40
2019-05-17T16:11:54.430Z,68.90
2019-05-17T16:14:14.571Z,68.50
2019-05-17T16:16:34.543Z,68.60
2019-05-17T16:18:54.240Z,69.10
2019-05-17T16:21:14.432Z,69.90
2019-05-17T16:23:34.621Z,70.00
2019-05-17T16:25:55.277Z,69.80
2019-05-17T16:28:15.357Z,70.50
2019-05-17T16:30:35.307Z,69.50
2019-05-17T16:32:55.265Z,69.40
2019-05-17T16:38:58.265Z,69.90
2019-05-17T16:41:18.545Z,69.90
2019-05-17T16:43:38.261Z,69.90
2019-05-17T16:45:57.658Z,69.60
2019-05-17T16:48:17.383Z,70.60
2019-05-17T16:50:37.456Z,69.60
2019-05-17T16:53:05.569Z,69.60
2019-05-17T16:55:18.543Z,69.60
2019-05-17T16:57:38.587Z,69.70
2019-05-17T16:59:58.374Z,69.50
2019-05-17T17:02:30.708Z,69.80
2019-05-17T17:04:51.433Z,70.10
2019-05-17T17:07:11.622Z,69.80
2019-05-17T17:09:31.774Z,70.30
2019-05-17T17:11:52.381Z,70.90
2019-05-17T17:14:14.259Z,70.90
2019-05-17T17:16:34.184Z,71.20
2019-05-17T17:18:54.810Z,71.40
2019-05-17T17:21:20.499Z,71.40
2019-05-17T17:23:43.119Z,71.20
2019-05-17T17:26:03.203Z,71.60
2019-05-17T17:28:25.517Z,72.50
2019-05-17T17:30:46.108Z,71.50
2019-05-17T17:33:06.114Z,71.60
2019-05-17T17:35:25.589Z,71.70
2019-05-17T17:37:45.445Z,72.40
2019-05-17T17:40:05.746Z,71.90
2019-05-17T17:42:25.624Z,71.80
2019-05-17T17:44:45.422Z,72.30
2019-05-17T17:47:05.166Z,72.80
2019-05-17T17:49:25.062Z,72.20
2019-05-17T17:51:46.153Z,72.60
2019-05-17T17:54:05.819Z,73.10
2019-05-17T17:56:25.639Z,73.30
2019-05-17T17:58:45.438Z,73.40
2019-05-17T18:01:06.285Z,73.40
2019-05-17T18:03:26.084Z,73.60
2019-05-17T18:05:46.180Z,74.00
2019-05-17T18:08:07.255Z,73.50
2019-05-17T18:10:29.972Z,74.10
2019-05-17T18:12:50.349Z,74.00
2019-05-17T18:15:11.472Z,73.80
2019-05-17T18:17:39.022Z,74.10
2019-05-17T18:20:06.568Z,73.90
2019-05-17T18:22:26.500Z,73.80
2019-05-17T18:24:46.562Z,73.90
2019-05-17T18:27:06.888Z,73.80
2019-05-17T18:29:27.594Z,73.80
2019-05-17T18:31:47.890Z,74.00
2019-05-17T18:34:08.930Z,74.00
2019-05-17T18:36:28.896Z,74.10
2019-05-17T18:38:52.297Z,73.90
2019-05-17T18:41:12.869Z,74.10
2019-05-17T18:43:32.637Z,74.20
2019-05-17T18:45:52.675Z,74.20
2019-05-17T18:48:12.622Z,74.40
2019-05-17T18:50:32.784Z,74.90
2019-05-17T18:52:53.145Z,74.60
2019-05-17T18:55:13.790Z,74.60
2019-05-17T18:57:34.125Z,74.50
2019-05-17T18:59:54.421Z,74.90
2019-05-17T19:02:14.419Z,74.80
2019-05-17T19:04:34.378Z,74.80
2019-05-17T19:06:54.230Z,74.80
2019-05-17T19:09:14.342Z,74.80
2019-05-17T19:11:36.240Z,74.90
2019-05-17T19:13:55.640Z,74.70
2019-05-17T19:16:15.315Z,75.50
2019-05-17T19:18:36.014Z,75.70
2019-05-17T19:20:55.917Z,75.70
2019-05-17T19:23:15.820Z,76.80
2019-05-17T19:25:35.806Z,76.90
2019-05-17T19:27:55.544Z,76.10
2019-05-17T19:30:16.727Z,77.20
2019-05-17T19:32:36.562Z,76.60
2019-05-17T19:34:56.454Z,76.70
2019-05-17T19:37:16.512Z,76.70
2019-05-17T19:39:36.851Z,76.90
2019-05-17T19:41:56.370Z,77.10
2019-05-17T19:44:16.322Z,77.40
2019-05-17T19:46:36.281Z,77.40
2019-05-17T19:48:55.996Z,77.10
2019-05-17T19:51:16.083Z,77.40
2019-05-17T19:53:35.743Z,75.70
2019-05-17T19:55:55.600Z,75.70
2019-05-17T19:58:15.451Z,75.70
2019-05-17T20:00:35.424Z,76.10
2019-05-17T20:02:55.403Z,77.30
2019-05-17T20:05:15.850Z,76.50
2019-05-17T20:07:38.885Z,75.90
2019-05-17T20:09:57.990Z,75.40
2019-05-17T20:12:18.138Z,74.80
2019-05-17T20:14:38.158Z,76.10
2019-05-17T20:16:58.094Z,75.90
2019-05-17T20:19:17.819Z,75.10
2019-05-17T20:21:37.671Z,74.70
2019-05-17T20:23:58.579Z,75.20
2019-05-17T20:26:18.308Z,75.70
2019-05-17T20:28:37.966Z,76.40
2019-05-17T20:30:58.053Z,77.00
2019-05-17T20:33:17.454Z,77.30
2019-05-17T20:35:37.589Z,77.10
2019-05-17T20:37:57.211Z,76.50
2019-05-17T20:40:18.044Z,78.60
2019-05-17T20:42:38.042Z,78.20
2019-05-17T20:44:57.876Z,79.20
2019-05-17T20:47:18.079Z,82.00
2019-05-17T20:49:37.723Z,82.70
2019-05-17T20:51:58.801Z,83.30
2019-05-17T20:54:19.009Z,83.60
2019-05-17T20:56:38.797Z,84.20
2019-05-17T20:58:59.582Z,84.50
2019-05-17T21:01:20.079Z,85.30
2019-05-17T21:03:40.222Z,85.20
2019-05-17T21:06:00.282Z,84.90
2019-05-17T21:08:20.153Z,84.70
2019-05-17T21:10:40.077Z,85.10
2019-05-17T21:13:29.190Z,85.30
2019-05-17T21:15:49.236Z,84.50
2019-05-17T21:18:09.373Z,83.90
2019-05-17T21:20:29.467Z,83.90
2019-05-17T21:22:49.246Z,84.10
2019-05-17T21:25:09.554Z,84.20
2019-05-17T21:27:30.003Z,84.90
2019-05-17T21:29:50.096Z,85.10
2019-05-17T21:32:10.029Z,84.40
2019-05-17T21:34:31.378Z,84.80
2019-05-17T21:36:51.128Z,84.70
2019-05-17T21:39:11.382Z,84.20
2019-05-17T21:41:31.656Z,85.00
2019-05-17T21:43:51.532Z,85.30
2019-05-17T21:46:11.563Z,85.60
2019-05-17T21:48:32.361Z,85.60
2019-05-17T21:50:52.270Z,85.60
2019-05-17T21:53:11.860Z,85.40
2019-05-17T21:55:31.567Z,85.40
2019-05-17T21:57:51.401Z,85.60
2019-05-17T22:00:15.318Z,85.70
2019-05-17T22:02:36.967Z,85.60
2019-05-17T22:04:56.930Z,85.50
2019-05-17T22:07:16.465Z,85.60
2019-05-17T22:09:36.456Z,86.00
2019-05-17T22:12:01.269Z,86.30
2019-05-17T22:14:21.090Z,86.90
2019-05-17T22:16:41.946Z,86.70
2019-05-17T22:19:01.707Z,86.70
2019-05-17T22:21:21.415Z,86.60
2019-05-17T22:23:41.065Z,86.70
2019-05-17T22:26:01.075Z,86.80
2019-05-17T22:28:20.703Z,87.60
2019-05-17T22:30:40.495Z,87.20
2019-05-17T22:33:01.079Z,86.40
2019-05-17T22:35:20.809Z,86.80
2019-05-17T22:37:40.317Z,88.30
2019-05-17T22:40:00.047Z,88.40
2019-05-17T22:42:19.972Z,88.20
2019-05-17T22:44:39.821Z,87.80
2019-05-17T22:47:00.158Z,89.70
2019-05-17T22:49:20.052Z,89.10
2019-05-17T22:51:40.371Z,88.50
2019-05-17T22:54:00.150Z,89.10
2019-05-17T22:56:20.314Z,87.80
2019-05-17T22:58:40.062Z,87.70
2019-05-17T23:01:01.159Z,87.40
2019-05-17T23:03:20.886Z,86.90
2019-05-17T23:05:40.959Z,86.80
2019-05-17T23:08:00.615Z,86.40
2019-05-17T23:10:20.365Z,85.30
2019-05-17T23:12:40.105Z,84.30
2019-05-17T23:14:59.877Z,85.30
2019-05-17T23:17:19.530Z,86.90
2019-05-17T23:19:39.643Z,86.20
2019-05-17T23:21:59.357Z,85.50
2019-05-17T23:24:18.934Z,86.20
2019-05-17T23:26:39.459Z,86.30
2019-05-17T23:28:59.838Z,85.60
2019-05-17T23:31:19.290Z,87.50
2019-05-17T23:33:39.082Z,88.10
2019-05-17T23:35:58.848Z,86.50
2019-05-17T23:38:18.848Z,85.80
2019-05-17T23:40:38.715Z,84.60
2019-05-17T23:42:58.698Z,85.00
2019-05-17T23:45:18.667Z,85.20
2019-05-17T23:47:38.776Z,85.30
2019-05-17T23:49:58.900Z,88.50
2019-05-17T23:52:18.712Z,89.20
2019-05-17T23:54:38.706Z,88.80
2019-05-17T23:56:59.112Z,88.90
2019-05-17T23:59:19.001Z,88.70
